Arago, Minnesota
Current Conditions -  °F | °C
As of 3:53 PM on Wednesday 22 Oct 2014 (Local Time) from KPKD Reporting Station
Clear Clear  
Wind Chill: 60°   Ceiling: Unl
Heat Index: 60°   Visibility: 10mi
Dew Point: 43°   Wind: 20mph
Humidity: 53%   Direction: 170°S
Pressure: 29.92"   Gusts: NA
Location:  46.9966°N, 95.0029°W
Report Text: KPKD 222053Z AUTO 17017KT 10SM CLR 16/06 A2992 RMK AO2 PK WND 18026/2035 SLP138 T01560061 56013 TSNO
Loading
Personal Weather Stations






























Interactive Weather Map
Tropical Storm Tracking
New forecast layout! Learn more

10-Day Weather Forecast

Advertisements
Track Severe Weather on mobile